Time;durP1;ratioP1;P1;durP2;ratioP2;P2;SDS_P1;SDS_P2;PMS_P1;PMS_P2;Temp;Humidity;BMP_temperature;BMP_pressure;BME280_temperature;BME280_humidity;BME280_pressure;Samples;Min_cycle;Max_cycle;Signal;HPM_P1;HPM_P2
2022/11/03 00:00:03;;;;;;;8.25;2.80;;;;;;;23.94;43.45;100803.00;5094943;28;20485;-56
2022/11/03 00:02:51;;;;;;;12.45;2.88;;;;;;;23.80;43.49;100797.63;5095040;28;20024;-56
2022/11/03 00:08:07;;;;;;;11.10;2.75;;;;;;;23.82;43.82;100790.66;5090920;28;20036;-56
2022/11/03 00:10:35;;;;;;;12.73;2.70;;;;;;;23.83;43.67;100786.28;5095301;28;20017;-57
2022/11/03 00:13:04;;;;;;;12.00;2.92;;;;;;;23.83;43.43;100784.53;5094364;28;20070;-56
2022/11/03 00:15:31;;;;;;;7.50;2.08;;;;;;;23.82;43.43;100772.31;5077056;28;20039;-55
2022/11/03 00:18:18;;;;;;;10.27;3.28;;;;;;;23.77;43.58;100770.50;5094553;28;20028;-57
2022/11/03 00:20:55;;;;;;;11.20;3.35;;;;;;;23.77;43.59;100758.28;5094548;28;20107;-56
2022/11/03 00:23:26;;;;;;;14.13;3.25;;;;;;;23.78;43.89;100759.16;5094737;28;20031;-56
2022/11/03 00:25:55;;;;;;;11.10;2.28;;;;;;;23.73;43.95;100746.03;5094153;28;20484;-59
2022/11/03 00:28:23;;;;;;;11.50;3.03;;;;;;;23.72;43.67;100744.25;5094634;28;20073;-55
2022/11/03 00:30:52;;;;;;;10.55;2.50;;;;;;;23.76;43.73;100755.66;5094261;28;20058;-56
2022/11/03 00:33:25;;;;;;;11.70;3.15;;;;;;;23.83;43.50;100752.25;5094566;28;20027;-56
2022/11/03 00:36:03;;;;;;;7.95;2.67;;;;;;;23.72;43.77;100738.16;5094519;28;20359;-56
2022/11/03 00:38:36;;;;;;;11.13;2.85;;;;;;;23.82;43.77;100742.63;5094355;28;20028;-57
2022/11/03 00:41:24;;;;;;;13.27;3.03;;;;;;;23.75;43.43;100728.59;5094183;28;20028;-59
2022/11/03 00:43:52;;;;;;;9.45;2.67;;;;;;;23.80;43.42;100733.88;5093825;28;20139;-59
2022/11/03 00:46:22;;;;;;;14.70;3.40;;;;;;;23.85;43.35;100726.94;5094038;28;20032;-57
2022/11/03 00:48:51;;;;;;;8.07;3.05;;;;;;;23.80;43.83;100713.81;5094064;28;20020;-55
2022/11/03 00:51:22;;;;;;;8.45;3.08;;;;;;;23.76;43.68;100706.78;5093876;28;20383;-56
2022/11/03 00:53:53;;;;;;;9.82;2.63;;;;;;;23.72;43.53;100693.63;5076358;28;20061;-56
2022/11/03 00:56:28;;;;;;;8.15;2.88;;;;;;;23.64;44.06;100688.31;5093856;28;20036;-56
2022/11/03 00:58:56;;;;;;;;;;;;;;;23.67;43.98;100688.31;5094049;28;20027;-56
2022/11/03 01:01:26;;;;;;;11.45;2.90;;;;;;;23.73;43.52;100683.16;5093730;28;19955;-56
2022/11/03 01:07:44;;;;;;;11.18;3.33;;;;;;;23.70;43.62;100675.28;5094020;28;20042;-57
2022/11/03 01:10:13;;;;;;;9.38;2.63;;;;;;;23.66;44.06;100670.88;5093625;28;20511;-57
2022/11/03 01:12:41;;;;;;;10.75;2.50;;;;;;;23.63;43.71;100663.88;5093588;28;20170;-57
2022/11/03 01:15:10;;;;;;;9.82;2.85;;;;;;;23.64;44.06;100660.38;5093997;28;20479;-57
2022/11/03 01:17:57;;;;;;;8.35;2.90;;;;;;;23.63;44.03;100653.38;5093323;28;20106;-56
2022/11/03 01:20:26;;;;;;;8.63;2.70;;;;;;;23.69;43.55;100636.84;5092025;28;20526;-56
2022/11/03 01:22:53;;;;;;;5.32;2.03;;;;;;;23.63;43.96;100627.19;5093426;28;20098;-57
2022/11/03 01:25:21;;;;;;;9.40;2.92;;;;;;;23.56;43.73;100612.31;5093529;28;20036;-56
2022/11/03 01:27:50;;;;;;;8.73;2.45;;;;;;;23.63;44.18;100619.34;5093481;28;20024;-57
2022/11/03 01:37:05;;;;;;;10.02;2.80;;;;;;;23.63;43.85;100619.34;5091623;28;20050;-57
2022/11/03 01:39:33;;;;;;;9.30;2.67;;;;;;;23.63;43.89;100610.63;5093010;28;20030;-57
2022/11/03 01:42:02;;;;;;;8.32;2.10;;;;;;;23.62;44.07;100603.63;5093146;28;20032;-57
2022/11/03 01:44:45;;;;;;;8.15;2.60;;;;;;;23.58;43.82;100597.47;5092543;28;20043;-57
2022/11/03 01:47:35;;;;;;;9.93;2.35;;;;;;;23.63;43.84;100593.16;5075885;28;20103;-56
2022/11/03 01:50:08;;;;;;;9.60;2.70;;;;;;;23.76;43.84;100577.53;5093163;28;20034;-56
2022/11/03 01:52:56;;;;;;;10.10;2.88;;;;;;;23.67;43.73;100583.56;5075092;28;20048;-58
2022/11/03 01:55:26;;;;;;;10.23;2.85;;;;;;;23.62;43.69;100567.84;5092872;28;20028;-58
2022/11/03 01:58:21;;;;;;;12.60;2.92;;;;;;;23.60;43.98;100568.69;5074882;28;20024;-59
2022/11/03 02:00:51;;;;;;;11.05;3.10;;;;;;;23.61;43.93;100570.44;5085795;28;20440;-57
2022/11/03 02:03:20;;;;;;;10.50;3.03;;;;;;;23.58;44.16;100567.81;5092867;28;20056;-57
2022/11/03 02:05:49;;;;;;;11.00;2.55;;;;;;;23.54;43.93;100566.00;5092788;28;20539;-55
2022/11/03 02:08:21;;;;;;;8.45;2.85;;;;;;;23.49;44.01;100564.25;5092787;28;20473;-57
2022/11/03 02:10:50;;;;;;;14.45;4.05;;;;;;;23.57;44.31;100560.81;5092961;28;20052;-57
2022/11/03 02:13:23;;;;;;;9.18;2.67;;;;;;;23.59;43.99;100557.34;5092635;28;20112;-60
2022/11/03 02:15:56;;;;;;;10.32;2.80;;;;;;;23.51;44.27;100559.03;5075076;28;20093;-57
2022/11/03 02:18:28;;;;;;;9.13;2.38;;;;;;;23.58;44.07;100557.34;5074988;28;20421;-55
2022/11/03 02:21:06;;;;;;;8.23;2.70;;;;;;;23.44;44.13;100552.88;5074996;28;20024;-55
2022/11/03 02:23:58;;;;;;;9.85;2.95;;;;;;;23.47;44.20;100546.75;5075019;28;20054;-56
2022/11/03 02:26:26;;;;;;;7.72;2.30;;;;;;;23.55;44.14;100538.97;5074905;28;20058;-55
2022/11/03 02:28:55;;;;;;;8.98;2.60;;;;;;;23.52;44.04;100531.97;5075111;28;20042;-56
2022/11/03 02:31:35;;;;;;;11.68;2.80;;;;;;;23.51;44.27;100522.38;5058381;28;20107;-57
2022/11/03 02:34:09;;;;;;;11.10;2.97;;;;;;;23.50;44.33;100518.00;5092983;28;20031;-56
2022/11/03 02:36:57;;;;;;;8.23;2.70;;;;;;;23.56;43.84;100518.06;5092704;28;20032;-59
2022/11/03 02:39:31;;;;;;;8.45;2.47;;;;;;;23.56;44.31;100511.94;5092299;28;20031;-57
2022/11/03 02:42:00;;;;;;;10.57;2.50;;;;;;;23.52;44.04;100511.91;5074794;28;20036;-57
2022/11/03 02:44:29;;;;;;;10.85;3.05;;;;;;;23.54;43.96;100497.94;5074390;28;20044;-57
2022/11/03 02:47:03;;;;;;;14.35;3.30;;;;;;;23.48;44.24;100497.06;5092795;28;20112;-55
2022/11/03 02:49:32;;;;;;;10.00;2.42;;;;;;;23.49;44.28;100483.09;5092601;28;20039;-56
2022/11/03 02:52:05;;;;;;;8.52;2.20;;;;;;;23.50;43.79;100476.97;5092644;28;20052;-55
2022/11/03 02:54:38;;;;;;;7.50;2.42;;;;;;;23.49;44.27;100474.34;5092350;28;20376;-57
2022/11/03 02:57:13;;;;;;;10.35;3.10;;;;;;;23.46;44.26;100469.97;5074560;28;20036;-54
2022/11/03 02:59:51;;;;;;;8.93;2.90;;;;;;;23.45;44.27;100449.91;5092249;28;20028;-56
2022/11/03 03:02:24;;;;;;;12.60;3.67;;;;;;;23.52;43.73;100440.34;5092259;28;20031;-57
2022/11/03 03:04:57;;;;;;;9.38;2.20;;;;;;;23.43;44.06;100435.94;5095630;28;20024;-58
2022/11/03 03:07:46;;;;;;;10.52;2.47;;;;;;;23.52;44.16;100432.50;5096433;28;20106;-57
2022/11/03 03:10:17;;;;;;;10.35;2.60;;;;;;;23.52;44.04;100429.88;5096176;28;20030;-56
2022/11/03 03:13:06;;;;;;;9.57;2.50;;;;;;;23.54;44.04;100411.53;5095171;28;20028;-57
2022/11/03 03:15:53;;;;;;;10.07;2.38;;;;;;;23.45;44.02;100401.88;5078270;28;20024;-57
2022/11/03 03:18:21;;;;;;;8.85;2.53;;;;;;;23.45;44.08;100387.09;5053337;28;20042;-55
2022/11/03 03:20:53;;;;;;;10.30;2.60;;;;;;;23.43;44.36;100386.19;5095715;28;20028;-55
2022/11/03 03:23:25;;;;;;;8.65;2.42;;;;;;;23.43;44.38;100386.19;5095697;28;20028;-55
2022/11/03 03:25:58;;;;;;;6.40;1.83;;;;;;;23.44;44.38;100381.81;5077898;28;20028;-56
2022/11/03 03:28:31;;;;;;;10.45;3.05;;;;;;;23.49;44.04;100375.78;5077969;28;20024;-57
2022/11/03 03:31:01;;;;;;;11.38;3.10;;;;;;;23.47;44.03;100360.91;5095649;28;20032;-57
2022/11/03 03:33:31;;;;;;;7.05;2.00;;;;;;;23.47;44.15;100356.56;5095637;28;20363;-57
2022/11/03 03:36:01;;;;;;;10.80;2.47;;;;;;;23.39;44.43;100346.91;5095645;28;20052;-56
2022/11/03 03:38:49;;;;;;;8.05;2.28;;;;;;;23.44;43.99;100334.69;5095712;28;20024;-59
2022/11/03 03:41:22;;;;;;;4.85;1.58;;;;;;;23.47;44.02;100319.00;5095529;28;20073;-60
2022/11/03 03:43:54;;;;;;;8.60;2.50;;;;;;;23.53;43.90;100326.91;5095121;28;20034;-60
2022/11/03 03:46:23;;;;;;;11.15;2.50;;;;;;;23.44;43.94;100330.34;5077398;28;20066;-57
2022/11/03 03:48:52;;;;;;;11.75;2.67;;;;;;;23.37;44.35;100315.47;5095523;28;20081;-57
2022/11/03 03:51:24;;;;;;;7.47;2.55;;;;;;;23.43;44.24;100310.28;5095347;28;20031;-56
2022/11/03 03:53:53;;;;;;;8.80;2.63;;;;;;;23.43;43.85;100305.03;5077826;28;20073;-52
2022/11/03 03:56:29;;;;;;;8.30;2.28;;;;;;;23.40;44.04;100291.06;5095273;28;20028;-50
2022/11/03 03:58:58;;;;;;;9.07;2.63;;;;;;;23.38;44.40;100293.66;5095337;28;20085;-58
2022/11/03 04:01:26;;;;;;;8.77;2.50;;;;;;;23.42;44.36;100284.06;5094914;28;20164;-58
2022/11/03 04:03:55;;;;;;;9.07;2.70;;;;;;;23.45;44.20;100278.88;5095082;28;20048;-59
2022/11/03 04:06:23;;;;;;;8.90;2.47;;;;;;;23.45;44.31;100266.66;5094867;28;20089;-58
2022/11/03 04:08:52;;;;;;;9.50;2.05;;;;;;;23.53;44.02;100258.84;5094891;28;20028;-58
2022/11/03 04:22:34;;;;;;;8.13;2.08;;;;;;;23.50;43.74;100256.22;5086930;28;20131;-55
2022/11/03 04:25:02;;;;;;;13.10;3.28;;;;;;;23.50;43.87;100248.34;5094932;28;20024;-55
2022/11/03 04:27:36;;;;;;;4.85;1.55;;;;;;;23.51;43.67;100245.72;5094660;28;20024;-56
2022/11/03 04:30:18;;;;;;;9.13;2.40;;;;;;;23.52;44.06;100242.25;5094735;28;20028;-56
2022/11/03 04:32:49;;;;;;;9.13;2.17;;;;;;;23.41;43.64;100220.41;5094521;28;20027;-57
2022/11/03 04:38:40;;;;;;;8.13;2.13;;;;;;;23.46;43.88;100228.25;5094014;28;20054;-56
2022/11/03 04:41:18;;;;;;;10.27;2.95;;;;;;;23.39;44.24;100210.81;5094276;28;20020;-55
2022/11/03 04:54:44;;;;;;;10.30;2.60;;;;;;;23.63;43.32;100251.91;5079819;28;20097;-57
2022/11/03 04:57:13;;;;;;;7.93;2.38;;;;;;;23.59;43.55;100252.75;5094102;28;20516;-51
2022/11/03 04:59:43;;;;;;;12.02;2.90;;;;;;;23.47;43.92;100246.59;5094011;28;20455;-55
2022/11/03 05:02:15;;;;;;;6.30;1.85;;;;;;;23.55;43.74;100227.41;5093999;28;20032;-54
2022/11/03 05:04:44;;;;;;;7.88;2.42;;;;;;;23.50;43.50;100235.25;5076020;28;20047;-56
2022/11/03 05:07:33;;;;;;;7.05;2.55;;;;;;;23.43;43.68;100229.13;5094094;28;20023;-56
2022/11/03 05:10:02;;;;;;;7.18;1.92;;;;;;;23.42;43.96;100229.09;5076013;28;20024;-57
2022/11/03 05:12:31;;;;;;;6.28;2.20;;;;;;;23.45;43.92;100221.28;5093640;28;20107;-57
2022/11/03 05:14:59;;;;;;;7.60;2.15;;;;;;;23.46;43.62;100216.06;5093512;28;20032;-56
2022/11/03 05:17:29;;;;;;;6.72;2.05;;;;;;;23.46;43.88;100221.31;5076014;28;20081;-57
2022/11/03 05:20:02;;;;;;;7.55;2.15;;;;;;;23.38;44.09;100227.38;5093412;28;20424;-56
2022/11/03 05:22:35;;;;;;;7.30;2.10;;;;;;;23.33;43.83;100233.47;5075909;28;20437;-57
2022/11/03 05:25:25;;;;;;;6.80;1.85;;;;;;;23.33;44.18;100237.84;5075599;28;20028;-56
2022/11/03 05:27:53;;;;;;;6.13;2.10;;;;;;;23.28;44.25;100235.16;5083636;28;20040;-56
2022/11/03 05:30:22;;;;;;;4.22;1.33;;;;;;;23.28;44.32;100242.16;5093157;28;20032;-57
2022/11/03 05:32:50;;;;;;;6.38;1.88;;;;;;;23.28;43.93;100239.53;5093315;28;20028;-55
2022/11/03 05:35:22;;;;;;;4.72;1.77;;;;;;;23.28;43.80;100239.53;5093396;28;20020;-56
2022/11/03 05:37:51;;;;;;;5.05;1.75;;;;;;;23.21;43.93;100222.94;5093489;28;20105;-57
2022/11/03 05:40:25;;;;;;;5.43;1.50;;;;;;;23.23;44.30;100205.50;5093159;28;20035;-57
2022/11/03 05:42:57;;;;;;;3.70;1.10;;;;;;;23.26;44.16;100209.88;5093604;28;20028;-57
2022/11/03 05:45:33;;;;;;;5.18;1.60;;;;;;;23.26;43.92;100202.03;5075739;28;20068;-57
2022/11/03 05:48:06;;;;;;;6.82;2.45;;;;;;;23.23;44.39;100184.56;5093281;28;20040;-57
2022/11/03 05:50:35;;;;;;;4.43;1.30;;;;;;;23.21;44.25;100183.69;5093158;28;20157;-57
2022/11/03 05:53:13;;;;;;;5.93;2.08;;;;;;;23.18;44.49;100181.03;5093265;28;20039;-57
2022/11/03 05:55:42;;;;;;;5.50;1.33;;;;;;;23.19;44.51;100190.63;5092866;28;20122;-55
2022/11/03 05:58:38;;;;;;;5.57;1.50;;;;;;;23.17;44.12;100208.91;5075232;28;20046;-56
2022/11/03 06:01:31;;;;;;;3.40;1.30;;;;;;;23.20;44.32;100219.44;5093089;28;20031;-56
2022/11/03 06:04:01;;;;;;;5.28;1.23;;;;;;;23.29;44.02;100230.81;5075078;28;20051;-56
2022/11/03 06:06:34;;;;;;;3.33;1.48;;;;;;;23.28;43.82;100240.41;5093097;28;20081;-56
2022/11/03 06:09:22;;;;;;;3.85;1.30;;;;;;;23.23;44.02;100241.25;5092953;28;20107;-56
2022/11/03 06:11:51;;;;;;;3.40;1.00;;;;;;;23.29;44.20;100246.53;5092943;28;20422;-56
2022/11/03 06:14:22;;;;;;;4.43;1.25;;;;;;;23.26;43.89;100255.22;5075247;28;20028;-56
2022/11/03 06:16:54;;;;;;;5.57;1.33;;;;;;;23.29;44.21;100252.63;5092995;28;20063;-55
2022/11/03 06:19:27;;;;;;;4.57;1.10;;;;;;;23.24;43.98;100243.00;5093296;28;20377;-55
2022/11/03 06:22:01;;;;;;;3.95;1.20;;;;;;;23.25;44.00;100218.59;5092833;28;20099;-56
2022/11/03 06:24:32;;;;;;;4.47;1.20;;;;;;;23.21;43.85;100195.03;5075215;28;20032;-59
2022/11/03 06:27:00;;;;;;;4.10;1.27;;;;;;;23.25;44.14;100184.56;5092795;28;20024;-59
2022/11/03 06:29:32;;;;;;;4.20;1.23;;;;;;;23.30;44.19;100172.38;5093006;28;20354;-55
2022/11/03 06:32:01;;;;;;;4.28;1.08;;;;;;;23.30;43.88;100177.63;5092881;28;20085;-58
2022/11/03 06:34:54;;;;;;;5.47;1.10;;;;;;;23.25;44.21;100167.13;5092883;28;20024;-57
2022/11/03 06:37:25;;;;;;;3.72;1.30;;;;;;;23.31;44.00;100174.13;5093203;28;20111;-57
2022/11/03 06:40:02;;;;;;;3.35;1.00;;;;;;;23.27;43.88;100152.28;5096735;28;20028;-58
2022/11/03 06:42:32;;;;;;;3.92;1.33;;;;;;;23.28;43.72;100181.97;5096855;28;20093;-57
2022/11/03 06:45:02;;;;;;;4.22;1.05;;;;;;;23.30;44.15;100181.09;5078718;28;20550;-58
2022/11/03 06:47:31;;;;;;;3.45;1.20;;;;;;;23.25;44.11;100171.50;5096482;28;20024;-58
2022/11/03 06:50:01;;;;;;;3.53;1.17;;;;;;;23.23;43.82;100174.13;5078882;28;20031;-58
2022/11/03 06:52:32;;;;;;;3.03;0.90;;;;;;;23.21;43.89;100215.09;5096353;28;20020;-57
2022/11/03 06:55:12;;;;;;;3.20;1.35;;;;;;;23.24;43.79;100209.00;5096225;28;20127;-59
2022/11/03 06:57:42;;;;;;;4.38;1.35;;;;;;;23.24;44.27;100193.28;5096142;28;20040;-58
2022/11/03 07:00:30;;;;;;;3.10;0.90;;;;;;;23.21;43.77;100200.25;5096164;28;20028;-58
2022/11/03 07:03:32;;;;;;;3.00;1.05;;;;;;;23.20;44.24;100146.16;5096440;28;20106;-59
2022/11/03 07:06:23;;;;;;;3.38;1.35;;;;;;;23.26;44.05;100128.75;5096482;28;20027;-58
2022/11/03 07:08:54;;;;;;;1.92;0.73;;;;;;;23.28;43.63;100161.91;5096434;28;20093;-59
2022/11/03 07:11:25;;;;;;;2.13;0.88;;;;;;;23.27;44.02;100182.84;5096106;28;20103;-58
2022/11/03 07:13:57;;;;;;;2.83;0.85;;;;;;;23.23;44.12;100179.34;5095796;28;20141;-55
2022/11/03 07:16:26;;;;;;;1.92;0.80;;;;;;;23.29;43.67;100173.25;5096180;28;20500;-58
2022/11/03 07:18:55;;;;;;;2.58;0.82;;;;;;;23.25;44.06;100156.66;5095966;28;20028;-58
2022/11/03 07:21:27;;;;;;;2.28;0.75;;;;;;;23.28;44.10;100143.56;5096323;28;20115;-58
2022/11/03 07:23:57;;;;;;;1.63;0.60;;;;;;;23.27;44.12;100139.22;5078054;28;20024;-59
2022/11/03 07:26:26;;;;;;;1.95;0.88;;;;;;;23.27;44.08;100141.81;5095940;28;20032;-59
2022/11/03 07:28:54;;;;;;;1.63;0.55;;;;;;;23.27;44.16;100148.81;5095678;28;20028;-59
2022/11/03 07:31:25;;;;;;;1.35;0.80;;;;;;;23.29;43.74;100162.78;5074476;28;20029;-58
2022/11/03 07:33:58;;;;;;;2.42;0.75;;;;;;;23.28;44.13;100166.28;5085086;28;20028;-60
2022/11/03 07:36:28;;;;;;;3.03;0.63;;;;;;;23.29;43.80;100168.88;5068343;28;20031;-59
2022/11/03 07:38:56;;;;;;;1.55;0.85;;;;;;;23.34;43.49;100153.19;5075363;28;20056;-59
2022/11/03 07:41:26;;;;;;;1.90;0.80;;;;;;;23.32;43.89;100134.00;5075652;28;20029;-58
2022/11/03 07:43:57;;;;;;;2.83;0.95;;;;;;;23.31;43.47;100140.13;5086595;28;20135;-59
2022/11/03 07:46:25;;;;;;;3.45;0.80;;;;;;;23.29;44.05;100136.63;5095457;28;20024;-59
2022/11/03 07:48:58;;;;;;;2.30;0.70;;;;;;;23.26;43.90;100113.91;5094242;28;20385;-59
2022/11/03 07:51:28;;;;;;;1.40;0.63;;;;;;;23.32;44.04;100116.56;5095462;28;20093;-59
2022/11/03 07:54:18;;;;;;;2.13;0.88;;;;;;;23.29;43.82;100111.31;5077356;28;20474;-59
2022/11/03 07:56:49;;;;;;;1.98;0.60;;;;;;;23.36;43.81;100113.09;5089429;28;20040;-59
2022/11/03 07:59:26;;;;;;;1.67;0.57;;;;;;;23.35;43.60;100120.91;5095158;28;20032;-58
2022/11/03 08:01:56;;;;;;;1.52;0.70;;;;;;;23.30;44.10;100154.06;5095063;28;20023;-58
2022/11/03 08:04:26;;;;;;;1.20;0.63;;;;;;;23.33;44.00;100162.78;5077008;28;20384;-58
2022/11/03 08:06:54;;;;;;;1.60;0.70;;;;;;;23.35;43.50;100182.00;5077664;28;20016;-58
2022/11/03 08:09:22;;;;;;;1.30;0.68;;;;;;;23.30;43.76;100194.19;5094917;28;20032;-58
2022/11/03 08:11:51;;;;;;;1.95;0.68;;;;;;;23.33;43.86;100193.34;5094505;28;20478;-58
2022/11/03 08:14:20;;;;;;;1.33;0.60;;;;;;;23.30;43.72;100194.19;5095005;28;20371;-58
2022/11/03 08:16:48;;;;;;;1.83;0.82;;;;;;;23.26;43.96;100191.56;5094910;28;20481;-58
2022/11/03 08:19:16;;;;;;;1.10;0.60;;;;;;;23.27;44.11;100202.00;5094723;28;20036;-57
2022/11/03 08:21:44;;;;;;;2.28;0.68;;;;;;;23.26;43.91;100200.25;5094508;28;20032;-57
2022/11/03 08:24:13;;;;;;;2.40;0.70;;;;;;;23.32;43.50;100200.31;5094651;28;20024;-58
2022/11/03 08:26:40;;;;;;;1.65;0.63;;;;;;;23.36;43.47;100206.41;5094554;28;20051;-57
2022/11/03 08:29:08;;;;;;;2.42;0.70;;;;;;;23.40;43.83;100202.94;5094743;28;20028;-58
2022/11/03 08:31:37;;;;;;;5.15;1.10;;;;;;;23.35;43.92;100207.28;5094370;28;20112;-59
2022/11/03 08:34:04;;;;;;;2.50;0.73;;;;;;;23.37;43.93;100208.16;5094173;28;20035;-58
2022/11/03 08:36:33;;;;;;;1.67;0.68;;;;;;;23.34;43.51;100216.00;5094056;28;20020;-57
2022/11/03 08:39:01;;;;;;;1.50;0.65;;;;;;;23.38;43.86;100235.22;5094644;28;20028;-58
2022/11/03 08:44:53;;;;;;;1.20;0.40;;;;;;;23.46;43.51;100229.16;5093337;28;20124;-59
2022/11/03 08:47:22;;;;;;;1.98;0.40;;;;;;;23.48;43.54;100230.03;5094473;28;20038;-58
2022/11/03 08:49:51;;;;;;;1.67;0.50;;;;;;;23.47;43.21;100220.44;5094198;28;20385;-58
2022/11/03 08:52:20;;;;;;;0.90;0.50;;;;;;;23.53;43.26;100227.44;5094252;28;20027;-58
2022/11/03 08:54:48;;;;;;;1.88;0.50;;;;;;;23.47;43.37;100220.44;5089457;28;20037;-59
2022/11/03 08:57:15;;;;;;;1.15;0.22;;;;;;;23.48;43.40;100231.75;5073992;28;20031;-47
2022/11/03 08:59:44;;;;;;;2.33;0.55;;;;;;;23.42;43.61;100235.25;5072612;28;20029;-58
2022/11/03 09:02:13;;;;;;;1.52;0.50;;;;;;;23.42;43.96;100234.34;5072965;28;20050;-57
2022/11/03 09:04:41;;;;;;;1.50;0.43;;;;;;;23.44;43.66;100238.75;5073520;28;20119;-58
2022/11/03 09:07:09;;;;;;;0.90;0.50;;;;;;;23.41;43.56;100253.56;5073517;28;20100;-59
2022/11/03 09:09:38;;;;;;;1.95;0.88;;;;;;;23.46;43.83;100246.59;5073712;28;20431;-59
2022/11/03 09:12:06;;;;;;;2.50;0.70;;;;;;;23.55;43.39;100258.84;5072328;28;20021;-57
2022/11/03 09:14:35;;;;;;;3.47;0.70;;;;;;;23.52;43.41;100263.19;5073648;28;20032;-57
2022/11/03 09:17:03;;;;;;;0.88;0.38;;;;;;;23.53;43.64;100258.84;5073622;28;20420;-59
2022/11/03 09:19:32;;;;;;;1.77;0.55;;;;;;;23.48;43.60;100268.41;5073519;28;20056;-58
2022/11/03 09:22:01;;;;;;;0.95;0.47;;;;;;;23.50;43.91;100279.78;5073333;28;20028;-57
2022/11/03 09:24:30;;;;;;;2.97;0.65;;;;;;;23.44;43.57;100274.50;5073353;28;20466;-60
2022/11/03 09:26:58;;;;;;;1.17;0.45;;;;;;;23.51;43.83;100289.38;5073379;28;20029;-59
2022/11/03 09:29:27;;;;;;;0.88;0.47;;;;;;;23.49;43.62;100283.25;5073453;28;20028;-58
2022/11/03 09:31:55;;;;;;;2.60;0.50;;;;;;;23.51;43.73;100294.59;5073388;28;20028;-57
2022/11/03 09:34:24;;;;;;;3.92;0.93;;;;;;;23.53;43.61;100287.63;5073092;28;20035;-59
2022/11/03 09:36:53;;;;;;;1.27;0.73;;;;;;;23.50;43.41;100288.47;5073318;28;20481;-59
2022/11/03 09:39:21;;;;;;;3.35;0.57;;;;;;;23.47;43.80;100288.50;5073283;28;20020;-59
2022/11/03 09:41:50;;;;;;;1.30;0.47;;;;;;;23.50;43.62;100287.63;5055707;28;20382;-59
2022/11/03 09:44:17;;;;;;;4.35;0.47;;;;;;;23.52;43.91;100296.34;5071707;28;20434;-56
2022/11/03 09:46:46;;;;;;;5.28;0.70;;;;;;;23.56;43.57;100292.00;5072902;28;20450;-59
2022/11/03 09:49:16;;;;;;;1.58;0.57;;;;;;;23.56;43.73;100299.84;5073143;28;20044;-58
2022/11/03 09:51:45;;;;;;;2.25;0.50;;;;;;;23.55;43.57;100292.88;5071999;28;20032;-59
2022/11/03 09:54:16;;;;;;;1.27;0.38;;;;;;;23.57;43.55;100288.50;5078032;28;20055;-59
2022/11/03 09:56:46;;;;;;;2.92;0.73;;;;;;;23.61;43.60;100292.91;5092980;28;20024;-59
2022/11/03 09:59:20;;;;;;;0.93;0.40;;;;;;;23.55;43.82;100291.13;5093275;28;20028;-59
2022/11/03 10:01:52;;;;;;;1.55;0.63;;;;;;;23.60;43.51;100289.41;5093378;28;20050;-56
2022/11/03 10:04:26;;;;;;;1.70;0.63;;;;;;;23.60;43.74;100291.16;5093038;28;20144;-59
2022/11/03 10:06:59;;;;;;;2.03;0.50;;;;;;;23.57;43.68;100291.13;5093222;28;20031;-59
2022/11/03 10:09:28;;;;;;;2.65;0.47;;;;;;;23.64;43.49;100290.31;5092886;28;20028;-58
2022/11/03 10:11:56;;;;;;;2.13;0.80;;;;;;;23.63;43.95;100299.03;5075374;28;20055;-58
2022/11/03 10:14:25;;;;;;;1.63;0.60;;;;;;;23.62;44.04;100297.28;5095977;28;20028;-55
2022/11/03 10:16:59;;;;;;;1.27;0.38;;;;;;;23.66;43.67;100314.75;5096818;28;20024;-58
2022/11/03 10:19:27;;;;;;;2.50;0.70;;;;;;;23.66;43.56;100299.91;5097398;28;20016;-56
2022/11/03 10:21:56;;;;;;;1.85;0.70;;;;;;;23.62;43.69;100306.00;5097362;28;20035;-58
2022/11/03 10:24:24;;;;;;;2.28;0.60;;;;;;;23.67;43.40;100306.91;5096905;28;20542;-53
2022/11/03 10:26:54;;;;;;;3.53;0.70;;;;;;;23.71;43.87;100307.78;5079153;28;20027;-57
2022/11/03 10:29:27;;;;;;;4.63;0.90;;;;;;;23.66;43.96;100313.00;5096942;28;20028;-54
2022/11/03 10:31:57;;;;;;;4.30;0.98;;;;;;;23.67;43.73;100312.13;5078739;28;20055;-58
2022/11/03 10:34:38;;;;;;;4.18;0.80;;;;;;;23.71;43.73;100320.88;5096810;28;20035;-58
2022/11/03 10:37:30;;;;;;;1.95;0.50;;;;;;;23.68;44.00;100315.59;5097141;28;20027;-57
2022/11/03 10:39:59;;;;;;;3.22;1.00;;;;;;;23.83;43.37;100334.00;5096392;28;20035;-58
2022/11/03 10:42:29;;;;;;;4.93;1.02;;;;;;;23.79;43.34;100331.38;5096817;28;20107;-59
2022/11/03 10:45:14;;;;;;;4.88;0.93;;;;;;;23.75;43.70;100335.72;5096256;28;20032;-58
2022/11/03 10:47:43;;;;;;;3.28;0.65;;;;;;;23.81;43.71;100333.16;5078845;28;20024;-58
2022/11/03 10:50:30;;;;;;;4.97;0.90;;;;;;;23.72;43.34;100330.47;5078696;28;20090;-58
2022/11/03 10:52:59;;;;;;;5.55;1.02;;;;;;;23.79;43.69;100334.88;5096678;28;20028;-57
2022/11/03 10:55:28;;;;;;;3.10;1.05;;;;;;;23.81;43.58;100335.75;5096330;28;20048;-58
2022/11/03 10:57:58;;;;;;;2.13;0.73;;;;;;;23.80;43.51;100341.88;5078430;28;20032;-57
2022/11/03 11:00:26;;;;;;;1.67;0.60;;;;;;;23.80;43.51;100339.25;5096655;28;20069;-57
2022/11/03 11:02:59;;;;;;;5.00;0.70;;;;;;;23.75;43.42;100343.59;5078262;28;20081;-58
2022/11/03 11:05:27;;;;;;;3.53;1.27;;;;;;;23.80;43.56;100343.59;5096240;28;20028;-58
2022/11/03 11:07:56;;;;;;;2.22;1.02;;;;;;;23.83;43.24;100343.63;5078372;28;20094;-57
2022/11/03 11:10:27;;;;;;;3.42;0.98;;;;;;;23.78;43.54;100346.22;5078295;28;20031;-59
2022/11/03 11:13:17;;;;;;;5.88;1.05;;;;;;;23.81;43.54;100346.25;5078285;28;20052;-58
2022/11/03 11:16:06;;;;;;;3.28;0.95;;;;;;;23.88;44.21;100352.38;5096136;28;20469;-58
2022/11/03 11:18:34;;;;;;;3.88;0.95;;;;;;;23.89;44.33;100346.28;5096132;28;20406;-58
2022/11/03 11:21:23;;;;;;;3.50;1.00;;;;;;;23.91;44.43;100347.13;5095652;28;20385;-56
2022/11/03 11:23:52;;;;;;;3.42;1.00;;;;;;;23.89;44.64;100348.00;5094757;28;20021;-57
2022/11/03 11:26:39;;;;;;;8.32;1.63;;;;;;;23.87;44.84;100345.38;5077882;28;20024;-59
2022/11/03 11:29:08;;;;;;;5.60;1.10;;;;;;;23.93;44.90;100348.00;5078676;28;20034;-59
2022/11/03 11:31:38;;;;;;;4.18;1.20;;;;;;;23.95;45.45;100348.03;5095812;28;20020;-59
2022/11/03 11:34:11;;;;;;;5.25;1.45;;;;;;;23.98;45.30;100348.06;5095665;28;20397;-59
2022/11/03 11:36:40;;;;;;;10.38;1.60;;;;;;;24.00;45.12;100354.16;5095614;28;20095;-59
2022/11/03 11:39:27;;;;;;;6.30;1.45;;;;;;;24.03;45.31;100355.94;5077510;28;20032;-58
2022/11/03 11:42:18;;;;;;;7.65;1.48;;;;;;;24.02;45.83;100347.19;5095429;28;20035;-58
2022/11/03 11:44:49;;;;;;;7.35;1.60;;;;;;;24.06;45.66;100353.34;5069703;28;20093;-59
2022/11/03 11:47:55;;;;;;;11.88;3.80;;;;;;;24.08;45.54;100359.44;5095375;28;20042;-57
2022/11/03 11:50:28;;;;;;;28.58;14.52;;;;;;;24.10;45.88;100352.44;5093393;28;20031;-59
2022/11/03 11:52:59;;;;;;;31.85;16.67;;;;;;;24.06;46.23;100351.56;5093997;28;20469;-59
2022/11/03 11:55:51;;;;;;;28.35;16.25;;;;;;;24.08;46.25;100351.56;5077116;28;20477;-59
2022/11/03 11:58:21;;;;;;;31.70;17.13;;;;;;;24.11;46.27;100354.22;5069158;28;20122;-59
2022/11/03 12:01:10;;;;;;;30.25;16.80;;;;;;;24.14;46.25;100369.09;5095512;28;20023;-59
2022/11/03 12:03:44;;;;;;;29.40;16.27;;;;;;;24.12;45.80;100367.34;5080149;28;20089;-58
2022/11/03 12:06:14;;;;;;;28.70;15.90;;;;;;;24.17;46.07;100375.19;5074785;28;20036;-57
2022/11/03 12:08:43;;;;;;;21.38;13.40;;;;;;;24.17;46.32;100374.31;5074949;28;20044;-57
2022/11/03 12:11:12;;;;;;;24.45;13.75;;;;;;;24.21;45.78;100374.34;5057068;28;20389;-57
2022/11/03 12:13:51;;;;;;;23.45;10.95;;;;;;;24.15;45.35;100376.94;5074329;28;20371;-58
2022/11/03 12:16:38;;;;;;;20.27;11.18;;;;;;;24.17;45.88;100363.81;5074900;28;20037;-58
2022/11/03 12:19:45;;;;;;;21.70;10.63;;;;;;;24.17;45.54;100379.56;5074562;28;20063;-59
2022/11/03 12:22:42;;;;;;;20.17;10.05;;;;;;;24.26;45.52;100369.97;5064950;28;20033;-56
2022/11/03 12:25:34;;;;;;;18.00;9.57;;;;;;;24.11;45.48;100352.47;5069232;28;20094;-59
2022/11/03 12:28:03;;;;;;;15.90;9.13;;;;;;;24.24;45.34;100370.84;5051800;28;20040;-57
2022/11/03 12:30:30;;;;;;;17.20;8.68;;;;;;;24.22;45.20;100375.19;5074516;28;20016;-55
2022/11/03 12:32:58;;;;;;;17.13;8.45;;;;;;;24.20;45.41;100374.31;5074217;28;20024;-58